Time;durP1;ratioP1;P1;durP2;ratioP2;P2;SDS_P1;SDS_P2;PMS_P1;PMS_P2;Temp;Humidity;BMP_temperature;BMP_pressure;BME280_temperature;BME280_humidity;BME280_pressure;Samples;Min_cycle;Max_cycle;Signal;HPM_P1;HPM_P2
2023/05/07 00:00:51;;;;;;;;;;;;;;;19.96;50.00;101708.72;5009725;28;4184;-70
2023/05/07 00:03:18;;;;;;;;;;;;;;;19.95;50.19;101718.72;5006804;28;4550;-70
2023/05/07 00:05:46;;;;;;;;;;;;;;;19.97;50.06;101720.94;5000334;28;5101;-70
2023/05/07 00:08:12;;;;;;;;;;;;;;;19.96;50.15;101720.22;5013844;28;5048;-70
2023/05/07 00:10:38;;;;;;;;;;;;;;;19.95;49.98;101712.19;5006619;28;4088;-66
2023/05/07 00:13:05;;;;;;;;;;;;;;;19.95;50.02;101717.94;5006794;28;4360;-70
2023/05/07 00:15:31;;;;;;;;;;;;;;;19.96;50.12;101722.34;5008400;28;4030;-69
2023/05/07 00:17:59;;;;;;;;;;;;;;;19.96;49.92;101725.22;5011089;28;4444;-69
2023/05/07 00:20:25;;;;;;;;;;;;;;;19.96;50.07;101719.47;5007993;28;4186;-69
2023/05/07 00:22:52;;;;;;;;;;;;;;;19.94;49.97;101720.06;5004492;28;4313;-69
2023/05/07 00:25:19;;;;;;;;;;;;;;;19.93;50.06;101717.81;5003221;28;4228;-69
2023/05/07 00:27:45;;;;;;;;;;;;;;;19.94;50.00;101716.47;5014946;28;3905;-69
2023/05/07 00:30:12;;;;;;;;;;;;;;;19.94;50.07;101717.22;5013657;28;3933;-69
2023/05/07 00:32:39;;;;;;;;;;;;;;;19.94;50.03;101720.06;5009730;28;4187;-70
2023/05/07 00:35:05;;;;;;;;;;;;;;;19.94;50.04;101711.47;5007908;28;4212;-70
2023/05/07 00:37:32;;;;;;;;;;;;;;;19.94;49.99;101725.84;5008560;28;4279;-69
2023/05/07 00:39:58;;;;;;;;;;;;;;;19.93;49.97;101715.72;5007954;28;4162;-69
2023/05/07 00:42:24;;;;;;;;;;;;;;;19.92;50.05;101719.94;5002697;28;4422;-69
2023/05/07 00:44:51;;;;;;;;;;;;;;;19.93;50.03;101712.84;5008845;28;4025;-69
2023/05/07 00:47:17;;;;;;;;;;;;;;;19.92;50.16;101719.94;5006318;28;4025;-70
2023/05/07 00:49:44;;;;;;;;;;;;;;;19.89;50.01;101715.47;5005930;28;4519;-70
2023/05/07 00:52:11;;;;;;;;;;;;;;;19.91;49.98;101724.22;5002556;28;4469;-70
2023/05/07 00:54:37;;;;;;;;;;;;;;;19.92;50.01;101710.59;5011490;28;4123;-69
2023/05/07 00:57:04;;;;;;;;;;;;;;;19.91;50.06;101711.97;4999448;28;4158;-69
2023/05/07 00:59:30;;;;;;;;;;;;;;;19.90;50.06;101711.19;5003507;28;4152;-70
2023/05/07 01:01:56;;;;;;;;;;;;;;;19.91;50.02;101714.84;5008969;28;4100;-70
2023/05/07 01:04:23;;;;;;;;;;;;;;;19.90;49.98;101716.94;5006305;28;4061;-69
2023/05/07 01:06:50;;;;;;;;;;;;;;;19.90;49.98;101716.94;5006317;28;4065;-69
2023/05/07 01:09:17;;;;;;;;;;;;;;;19.89;49.80;101703.97;5000269;28;4230;-70
2023/05/07 01:11:44;;;;;;;;;;;;;;;19.89;49.92;101712.59;5000703;28;4093;-70
2023/05/07 01:14:10;;;;;;;;;;;;;;;19.88;50.07;101713.94;5007366;28;4197;-70
2023/05/07 01:16:37;;;;;;;;;;;;;;;19.88;50.04;101708.97;4987808;28;4081;-70
2023/05/07 01:19:03;;;;;;;;;;;;;;;19.87;50.02;101707.44;5003515;28;4168;-71
2023/05/07 01:21:30;;;;;;;;;;;;;;;19.86;49.96;101708.84;4989200;28;4320;-70
2023/05/07 01:23:57;;;;;;;;;;;;;;;19.88;50.04;101708.19;4974302;28;4037;-70
2023/05/07 01:26:24;;;;;;;;;;;;;;;19.88;49.86;101711.84;4993753;28;4168;-70
2023/05/07 01:28:50;;;;;;;;;;;;;;;19.86;49.92;101705.22;4998353;28;4013;-71
2023/05/07 01:34:37;;;;;;;;;;;;;;;19.87;49.91;101703.84;4992270;28;4234;-71
2023/05/07 01:37:04;;;;;;;;;;;;;;;19.88;49.96;101705.31;4992594;28;4235;-71
2023/05/07 01:39:30;;;;;;;;;;;;;;;19.86;49.99;101710.97;4988832;28;4133;-70
2023/05/07 01:41:56;;;;;;;;;;;;;;;19.85;49.89;101710.19;5003839;28;4328;-70
2023/05/07 01:44:23;;;;;;;;;;;;;;;19.86;49.97;101710.97;4987766;28;4129;-71
2023/05/07 01:46:50;;;;;;;;;;;;;;;19.83;49.96;101712.94;4997133;28;4062;-70
2023/05/07 01:49:16;;;;;;;;;;;;;;;19.85;50.12;101709.47;5001190;28;4156;-70
2023/05/07 01:51:43;;;;;;;;;;;;;;;19.84;50.09;101705.09;5011003;28;4118;-70
2023/05/07 01:54:09;;;;;;;;;;;;;;;19.82;50.01;101704.97;5002956;28;4955;-70
2023/05/07 01:56:36;;;;;;;;;;;;;;;19.84;50.03;101713.72;5006642;28;4086;-70
2023/05/07 01:59:02;;;;;;;;;;;;;;;19.83;50.04;101712.19;5018106;28;4101;-71
2023/05/07 02:01:29;;;;;;;;;;;;;;;19.85;49.93;101720.94;5008896;28;4103;-70
2023/05/07 02:03:56;;;;;;;;;;;;;;;19.83;49.86;101715.81;5021009;28;3984;-70
2023/05/07 02:06:25;;;;;;;;;;;;;;;19.82;50.01;101716.47;5016892;28;4099;-71
2023/05/07 02:08:55;;;;;;;;;;;;;;;19.82;49.88;101730.84;5005407;28;4124;-71
2023/05/07 02:11:22;;;;;;;;;;;;;;;19.82;49.95;101725.09;5016953;28;4166;-70
2023/05/07 02:13:48;;;;;;;;;;;;;;;19.82;49.97;101725.81;5019891;28;4052;-70
2023/05/07 02:16:15;;;;;;;;;;;;;;;19.83;49.91;101729.44;5013332;28;4033;-70
2023/05/07 02:18:41;;;;;;;;;;;;;;;19.82;49.93;101728.69;5000603;28;4064;-70
2023/05/07 02:21:08;;;;;;;;;;;;;;;19.84;49.92;101728.09;5008837;28;3988;-70
2023/05/07 02:23:34;;;;;;;;;;;;;;;19.83;49.96;101730.19;5012754;28;4105;-70
2023/05/07 02:26:01;;;;;;;;;;;;;;;19.82;50.00;101733.72;5008413;28;4422;-71
2023/05/07 02:28:27;;;;;;;;;;;;;;;19.83;50.08;101735.19;5008405;28;4118;-71
2023/05/07 02:31:04;;;;;;;;;;;;;;;19.82;49.98;101730.84;5015212;28;4307;-71
2023/05/07 02:33:31;;;;;;;;;;;;;;;19.82;49.97;101727.97;5026455;28;4180;-70
2023/05/07 02:36:05;;;;;;;;;;;;;;;19.81;49.93;101732.97;5007737;28;4161;-70
2023/05/07 02:38:32;;;;;;;;;;;;;;;19.81;49.91;101737.94;5016630;28;4201;-71
2023/05/07 02:40:58;;;;;;;;;;;;;;;19.82;49.79;101736.59;5007381;28;4148;-71
2023/05/07 02:43:25;;;;;;;;;;;;;;;19.80;49.89;101737.19;5008382;28;4172;-70
2023/05/07 02:46:04;;;;;;;;;;;;;;;19.79;49.94;101734.94;5011927;28;4058;-71
2023/05/07 02:48:32;;;;;;;;;;;;;;;19.80;49.86;101745.81;5009171;28;4150;-70
2023/05/07 02:50:58;;;;;;;;;;;;;;;19.81;49.96;101749.44;5022064;28;4307;-70
2023/05/07 02:53:27;;;;;;;;;;;;;;;19.80;50.01;101754.44;5012633;28;4051;-70
2023/05/07 02:55:56;;;;;;;;;;;;;;;19.80;50.01;101753.69;5007226;28;4203;-70
2023/05/07 02:58:22;;;;;;;;;;;;;;;19.80;50.06;101753.69;4997839;28;4145;-71
2023/05/07 03:00:49;;;;;;;;;;;;;;;19.79;50.01;101746.44;5006944;28;4247;-71
2023/05/07 03:03:35;;;;;;;;;;;;;;;19.79;50.02;101752.19;5013975;28;4459;-71
2023/05/07 03:06:01;;;;;;;;;;;;;;;19.78;49.92;101744.94;5006993;28;3965;-70
2023/05/07 03:08:28;;;;;;;;;;;;;;;19.79;49.91;101757.94;5006783;28;4064;-70
2023/05/07 03:10:54;;;;;;;;;;;;;;;19.79;49.93;101761.56;5007811;28;4132;-70
2023/05/07 03:13:21;;;;;;;;;;;;;;;19.78;49.96;101748.56;5005402;28;4050;-70
2023/05/07 03:15:47;;;;;;;;;;;;;;;19.78;50.03;101744.94;5002747;28;4174;-70
2023/05/07 03:18:14;;;;;;;;;;;;;;;19.78;49.83;101756.44;5013735;28;4076;-71
2023/05/07 03:20:40;;;;;;;;;;;;;;;19.77;50.11;101754.91;5010393;28;4042;-70
2023/05/07 03:23:07;;;;;;;;;;;;;;;19.77;49.96;101754.91;5005021;28;4152;-71
2023/05/07 03:25:33;;;;;;;;;;;;;;;19.78;50.04;101756.44;5002205;28;4039;-70
2023/05/07 03:28:00;;;;;;;;;;;;;;;19.76;49.95;101748.44;5005278;28;4124;-71
2023/05/07 03:30:35;;;;;;;;;;;;;;;19.77;50.01;101757.78;5006150;28;4015;-71
2023/05/07 03:33:01;;;;;;;;;;;;;;;19.76;50.03;101756.31;5018138;28;4118;-71
2023/05/07 03:35:28;;;;;;;;;;;;;;;19.76;50.17;101754.19;5005107;28;4008;-70
2023/05/07 03:37:55;;;;;;;;;;;;;;;19.77;50.07;101754.91;5009072;28;4398;-70
2023/05/07 03:40:21;;;;;;;;;;;;;;;19.75;50.07;101751.94;5007260;28;4012;-70
2023/05/07 03:42:51;;;;;;;;;;;;;;;19.75;50.06;101766.31;5007429;28;4470;-70
2023/05/07 03:45:20;;;;;;;;;;;;;;;19.75;49.93;101769.19;5008879;28;4222;-70
2023/05/07 03:47:55;;;;;;;;;;;;;;;19.75;50.04;101774.94;5024223;28;3937;-70
2023/05/07 03:50:21;;;;;;;;;;;;;;;19.74;50.05;101777.03;4983157;28;981998;-70
2023/05/07 03:52:48;;;;;;;;;;;;;;;19.74;49.87;101773.41;5012738;28;4187;-70
2023/05/07 03:55:17;;;;;;;;;;;;;;;19.75;50.09;101772.06;5006654;28;4123;-70
2023/05/07 03:57:49;;;;;;;;;;;;;;;19.75;50.00;101769.19;5014421;28;5307;-71
2023/05/07 04:00:17;;;;;;;;;;;;;;;19.75;49.87;101769.94;5008643;28;4134;-71
2023/05/07 04:02:46;;;;;;;;;;;;;;;19.75;49.90;101769.19;5011504;28;4232;-71
2023/05/07 04:05:16;;;;;;;;;;;;;;;19.74;50.05;101764.81;5026764;28;4278;-71
2023/05/07 04:07:45;;;;;;;;;;;;;;;19.74;50.08;101774.16;5014295;28;4113;-71
2023/05/07 04:10:14;;;;;;;;;;;;;;;19.72;50.07;101773.28;5014614;28;4016;-71
2023/05/07 04:12:42;;;;;;;;;;;;;;;19.73;49.94;101772.69;5008799;28;4030;-71
2023/05/07 04:15:13;;;;;;;;;;;;;;;19.74;50.02;101779.16;5017671;28;4220;-70
2023/05/07 04:17:41;;;;;;;;;;;;;;;19.73;49.84;101783.44;5009657;28;4743;-71
2023/05/07 04:20:13;;;;;;;;;;;;;;;19.74;50.02;101784.91;5021089;28;4764;-71
2023/05/07 04:22:40;;;;;;;;;;;;;;;19.73;49.98;101789.16;5008975;28;4258;-71
2023/05/07 04:25:08;;;;;;;;;;;;;;;19.73;50.02;101792.03;5004672;28;4199;-71
2023/05/07 04:27:36;;;;;;;;;;;;;;;19.72;49.96;101788.41;5018498;28;4067;-71
2023/05/07 04:30:02;;;;;;;;;;;;;;;19.73;50.09;101794.91;5002721;28;4005;-71
2023/05/07 04:32:33;;;;;;;;;;;;;;;19.71;50.05;101797.66;5002231;28;4157;-70
2023/05/07 04:35:00;;;;;;;;;;;;;;;19.70;50.06;101793.28;5009764;28;4177;-70
2023/05/07 04:37:26;;;;;;;;;;;;;;;19.70;49.96;101801.91;5016218;28;5097;-70
2023/05/07 04:39:53;;;;;;;;;;;;;;;19.69;49.99;101786.78;5004243;28;4072;-71
2023/05/07 04:42:21;;;;;;;;;;;;;;;19.70;49.86;101799.03;5014157;28;4166;-70
2023/05/07 04:44:51;;;;;;;;;;;;;;;19.70;49.85;101802.66;5017703;28;4266;-70
2023/05/07 04:47:18;;;;;;;;;;;;;;;19.70;49.91;101799.03;5023164;28;4547;-70
2023/05/07 04:49:45;;;;;;;;;;;;;;;19.70;49.93;101813.38;5008627;28;4139;-70
2023/05/07 04:52:11;;;;;;;;;;;;;;;19.70;50.02;101807.63;5009541;28;4498;-70
2023/05/07 04:54:37;;;;;;;;;;;;;;;19.70;49.99;101819.13;5009460;28;4146;-71
2023/05/07 04:57:05;;;;;;;;;;;;;;;19.69;49.96;101818.38;5018936;28;4139;-71
2023/05/07 04:59:32;;;;;;;;;;;;;;;19.70;49.97;101819.13;5013067;28;4076;-69
2023/05/07 05:01:58;;;;;;;;;;;;;;;19.70;49.88;101819.13;5013756;28;4093;-70
2023/05/07 05:04:25;;;;;;;;;;;;;;;19.70;50.02;101816.25;5017339;28;4353;-70
2023/05/07 05:06:52;;;;;;;;;;;;;;;19.69;49.89;101832.00;5019086;28;4191;-71
2023/05/07 05:09:18;;;;;;;;;;;;;;;19.69;50.04;101832.00;5007075;28;4148;-71
2023/05/07 05:11:45;;;;;;;;;;;;;;;19.67;49.93;101833.34;5005670;28;6558;-71
2023/05/07 05:14:11;;;;;;;;;;;;;;;19.67;49.94;101826.84;5011702;28;4263;-70
2023/05/07 05:16:38;;;;;;;;;;;;;;;19.67;49.97;101827.59;5004222;28;4035;-71
2023/05/07 05:19:04;;;;;;;;;;;;;;;19.66;49.89;101831.84;5007743;28;4082;-71
2023/05/07 05:21:34;;;;;;;;;;;;;;;19.66;49.96;101834.72;5022415;28;4274;-71
2023/05/07 05:24:06;;;;;;;;;;;;;;;19.66;49.99;101828.22;5003433;28;4110;-70
2023/05/07 05:26:32;;;;;;;;;;;;;;;19.66;50.00;101828.97;5012015;28;4070;-70
2023/05/07 05:28:59;;;;;;;;;;;;;;;19.65;50.15;101830.38;5002341;28;4040;-71
2023/05/07 05:31:27;;;;;;;;;;;;;;;19.66;49.91;101826.09;5010875;28;4217;-70
2023/05/07 05:33:54;;;;;;;;;;;;;;;19.66;50.00;101839.72;5004472;28;4107;-71
2023/05/07 05:36:20;;;;;;;;;;;;;;;19.66;50.05;101836.84;5005755;28;4039;-70
2023/05/07 05:38:49;;;;;;;;;;;;;;;19.66;49.98;101831.09;5010976;28;4078;-71
2023/05/07 05:41:15;;;;;;;;;;;;;;;19.65;49.85;101836.09;5001591;28;4068;-71
2023/05/07 05:43:41;;;;;;;;;;;;;;;19.65;49.91;101830.38;5004125;28;4472;-70
2023/05/07 05:46:11;;;;;;;;;;;;;;;19.65;49.94;101841.84;5018913;28;4076;-70
2023/05/07 05:48:38;;;;;;;;;;;;;;;19.64;49.77;101837.47;5013901;28;4180;-69
2023/05/07 05:51:05;;;;;;;;;;;;;;;19.65;49.94;101830.38;5011952;28;4149;-69
2023/05/07 05:53:31;;;;;;;;;;;;;;;19.65;49.90;101836.09;5023455;28;4017;-70
2023/05/07 05:55:58;;;;;;;;;;;;;;;19.65;49.89;101844.72;5003525;28;4247;-69
2023/05/07 05:58:24;;;;;;;;;;;;;;;19.64;49.78;101845.34;5006668;28;4256;-70
2023/05/07 06:00:56;;;;;;;;;;;;;;;19.64;49.98;101851.84;5019374;28;4208;-70
2023/05/07 06:03:24;;;;;;;;;;;;;;;19.64;49.94;101854.69;5004362;28;4198;-70
2023/05/07 06:05:51;;;;;;;;;;;;;;;19.63;49.91;101853.22;5004143;28;4412;-70
2023/05/07 06:08:20;;;;;;;;;;;;;;;19.63;49.96;101861.84;5017234;28;4131;-70
2023/05/07 06:10:46;;;;;;;;;;;;;;;19.63;49.81;101856.09;5006295;28;5396;-69
2023/05/07 06:13:13;;;;;;;;;;;;;;;19.63;49.85;101858.19;4986427;28;4125;-71
2023/05/07 06:15:40;;;;;;;;;;;;;;;19.63;49.80;101855.31;5010340;28;4347;-67
2023/05/07 06:18:10;;;;;;;;;;;;;;;19.62;49.82;101854.56;5006206;28;3966;-69
2023/05/07 06:20:37;;;;;;;;;;;;;;;19.62;49.77;101860.31;5009876;28;4082;-67
2023/05/07 06:23:08;;;;;;;;;;;;;;;19.61;49.82;101861.69;5007955;28;4101;-67
2023/05/07 06:25:34;;;;;;;;;;;;;;;19.62;49.93;101868.94;5006798;28;4112;-67
2023/05/07 06:28:01;;;;;;;;;;;;;;;19.62;49.87;101866.06;5027551;28;4190;-67
2023/05/07 06:30:27;;;;;;;;;;;;;;;19.62;49.84;101866.06;5006699;28;4378;-67
2023/05/07 06:32:54;;;;;;;;;;;;;;;19.62;49.88;101865.31;5011892;28;4105;-66
2023/05/07 06:35:21;;;;;;;;;;;;;;;19.61;49.90;101867.44;5010102;28;4065;-67
2023/05/07 06:37:48;;;;;;;;;;;;;;;19.61;49.86;101870.31;5008297;28;4061;-67
2023/05/07 06:40:19;;;;;;;;;;;;;;;19.62;49.97;101876.81;5010644;28;4132;-68
2023/05/07 06:42:47;;;;;;;;;;;;;;;19.62;49.84;101889.06;5006950;28;5477;-67
2023/05/07 06:45:23;;;;;;;;;;;;;;;19.61;49.93;101881.81;5001635;28;4839;-67
2023/05/07 06:47:51;;;;;;;;;;;;;;;19.60;49.81;101874.53;5009446;28;4316;-67
2023/05/07 06:50:18;;;;;;;;;;;;;;;19.61;49.92;101870.31;5013734;28;4111;-67
2023/05/07 06:52:45;;;;;;;;;;;;;;;19.60;49.88;101877.41;5016841;28;4136;-67
2023/05/07 06:55:11;;;;;;;;;;;;;;;19.61;49.93;101869.56;5003310;28;4045;-67
2023/05/07 06:57:37;;;;;;;;;;;;;;;19.61;49.87;101875.31;5008864;28;4043;-67
2023/05/07 07:00:06;;;;;;;;;;;;;;;19.60;49.93;101873.81;5007550;28;4191;-67
2023/05/07 07:02:40;;;;;;;;;;;;;;;19.60;49.88;101874.53;5008639;28;4319;-66
2023/05/07 07:05:07;;;;;;;;;;;;;;;19.60;49.94;101877.41;5012452;28;4204;-67
2023/05/07 07:07:34;;;;;;;;;;;;;;;19.60;49.96;101874.53;5007563;28;4166;-67
2023/05/07 07:10:00;;;;;;;;;;;;;;;19.56;50.09;101879.28;5007506;28;4117;-67
2023/05/07 07:12:28;;;;;;;;;;;;;;;19.66;49.77;101877.09;5003272;28;3977;-68
2023/05/07 07:14:55;;;;;;;;;;;;;;;19.61;49.95;101878.19;5015230;28;3951;-64
2023/05/07 07:17:22;;;;;;;;;;;;;;;19.66;49.86;101889.31;5026220;28;4202;-65
2023/05/07 07:19:48;;;;;;;;;;;;;;;19.71;49.84;101889.63;5008699;28;4208;-70
2023/05/07 07:22:15;;;;;;;;;;;;;;;19.73;49.83;101889.75;5016416;28;4138;-72
2023/05/07 07:24:42;;;;;;;;;;;;;;;19.73;49.71;101886.88;4993305;28;4068;-68
2023/05/07 07:27:11;;;;;;;;;;;;;;;19.71;49.91;101889.63;5013888;28;4045;-69
2023/05/07 07:29:38;;;;;;;;;;;;;;;19.75;50.04;101889.91;5006317;28;3949;-71
2023/05/07 07:32:04;;;;;;;;;;;;;;;19.77;50.00;101892.88;5003503;28;4322;-70
2023/05/07 07:34:31;;;;;;;;;;;;;;;19.73;50.12;101884.75;5010763;28;4134;-70
2023/05/07 07:37:05;;;;;;;;;;;;;;;19.80;50.08;101889.53;5007866;28;4166;-70
2023/05/07 07:39:32;;;;;;;;;;;;;;;19.79;50.11;101890.13;5008579;28;4081;-68
2023/05/07 07:41:59;;;;;;;;;;;;;;;19.77;50.22;101890.00;5010514;28;4124;-69
2023/05/07 07:44:28;;;;;;;;;;;;;;;19.77;50.31;101902.28;5012308;28;4056;-69
2023/05/07 07:46:58;;;;;;;;;;;;;;;19.75;50.25;101899.25;5011367;28;4195;-68
2023/05/07 07:49:26;;;;;;;;;;;;;;;19.76;49.49;101886.38;5018211;28;4095;-69
2023/05/07 07:51:53;;;;;;;;;;;;;;;19.73;48.93;101899.13;5018200;28;4191;-71
2023/05/07 07:54:20;;;;;;;;;;;;;;;19.74;49.58;101899.88;5005295;28;4149;-65
2023/05/07 07:56:47;;;;;;;;;;;;;;;19.63;49.10;101895.53;4996860;28;4131;-74
2023/05/07 07:59:17;;;;;;;;;;;;;;;19.43;48.42;101894.97;5014494;28;3961;-66
2023/05/07 08:01:44;;;;;;;;;;;;;;;19.45;48.08;101903.72;5025307;28;4104;-67
2023/05/07 08:04:11;;;;;;;;;;;;;;;19.56;47.91;101897.28;5020792;28;4078;-67
2023/05/07 08:06:40;;;;;;;;;;;;;;;19.62;47.68;101900.53;5010961;28;3999;-68
2023/05/07 08:09:08;;;;;;;;;;;;;;;19.69;47.83;101892.34;5014258;28;4098;-67
2023/05/07 08:11:35;;;;;;;;;;;;;;;19.74;47.93;101899.88;5030304;28;4075;-67
2023/05/07 08:14:02;;;;;;;;;;;;;;;19.76;48.34;101902.88;5016166;28;3923;-68
2023/05/07 08:16:29;;;;;;;;;;;;;;;19.76;48.36;101891.38;5012392;28;4169;-67
2023/05/07 08:18:57;;;;;;;;;;;;;;;19.78;48.53;101894.41;5019874;28;3929;-67
2023/05/07 08:21:23;;;;;;;;;;;;;;;19.79;48.40;101907.38;5019746;28;4082;-67
2023/05/07 08:23:50;;;;;;;;;;;;;;;19.78;48.55;101894.41;5019955;28;4259;-67
2023/05/07 08:26:16;;;;;;;;;;;;;;;19.78;48.71;101900.88;5020987;28;4108;-67
2023/05/07 08:28:43;;;;;;;;;;;;;;;19.79;48.86;101895.88;5020318;28;4074;-67
2023/05/07 08:31:09;;;;;;;;;;;;;;;19.79;48.91;101895.88;5014224;28;4164;-67
2023/05/07 08:33:38;;;;;;;;;;;;;;;19.78;48.85;101888.66;5011113;28;4536;-67
2023/05/07 08:36:05;;;;;;;;;;;;;;;19.78;49.03;101891.53;5016044;28;4120;-67
2023/05/07 08:38:31;;;;;;;;;;;;;;;19.78;49.18;101894.41;5010232;28;4173;-67
2023/05/07 08:40:58;;;;;;;;;;;;;;;19.78;49.19;101891.53;5019569;28;4143;-68
2023/05/07 08:43:26;;;;;;;;;;;;;;;19.79;49.29;101895.88;5018857;28;4194;-67
2023/05/07 08:45:53;;;;;;;;;;;;;;;19.78;49.17;101903.00;5029146;28;4122;-67
2023/05/07 08:48:21;;;;;;;;;;;;;;;19.79;49.26;101895.88;5019863;28;4117;-65
2023/05/07 08:50:54;;;;;;;;;;;;;;;19.80;49.17;101891.66;5014361;28;4054;-67
2023/05/07 08:53:21;;;;;;;;;;;;;;;19.80;49.39;101897.41;5019199;28;3921;-67
2023/05/07 08:55:48;;;;;;;;;;;;;;;19.80;49.32;101891.66;5027442;28;4389;-68
2023/05/07 08:58:15;;;;;;;;;;;;;;;19.80;49.37;101889.53;5004198;28;4020;-67
2023/05/07 09:00:42;;;;;;;;;;;;;;;19.81;49.36;101893.91;5020161;28;4020;-69
2023/05/07 09:03:12;;;;;;;;;;;;;;;19.75;49.27;101890.63;5025302;28;4827;-70
2023/05/07 09:05:40;;;;;;;;;;;;;;;19.85;49.42;101893.41;5016234;28;4076;-71
2023/05/07 09:08:07;;;;;;;;;;;;;;;19.87;49.45;101887.81;5016865;28;4253;-71
2023/05/07 09:10:35;;;;;;;;;;;;;;;19.86;49.50;101886.31;5014552;28;4538;-70
2023/05/07 09:13:03;;;;;;;;;;;;;;;19.91;49.25;101887.31;5011878;28;4107;-70
2023/05/07 09:15:30;;;;;;;;;;;;;;;19.95;49.34;101890.44;5018781;28;4070;-71
2023/05/07 09:18:01;;;;;;;;;;;;;;;19.97;49.22;101887.69;5014191;28;5171;-70
2023/05/07 09:20:29;;;;;;;;;;;;;;;19.97;49.55;101894.19;5016420;28;4166;-70
2023/05/07 09:22:56;;;;;;;;;;;;;;;19.99;50.31;101888.56;4997884;28;4236;-71
2023/05/07 09:25:30;;;;;;;;;;;;;;;20.00;50.44;101887.22;5016801;28;4142;-69
2023/05/07 09:27:59;;;;;;;;;;;;;;;20.00;50.81;101887.22;5012423;28;4251;-71
2023/05/07 09:30:31;;;;;;;;;;;;;;;20.00;50.95;101884.34;5013276;28;4492;-70
2023/05/07 09:33:00;;;;;;;;;;;;;;;20.02;51.11;101887.34;5005611;28;4269;-71
2023/05/07 09:35:27;;;;;;;;;;;;;;;20.01;51.17;101888.72;5006952;28;4084;-71
2023/05/07 09:37:58;;;;;;;;;;;;;;;20.00;51.19;101892.97;5026781;28;4317;-70
2023/05/07 09:40:29;;;;;;;;;;;;;;;20.03;51.30;101896.72;5012671;28;4107;-70
2023/05/07 09:43:08;;;;;;;;;;;;;;;20.04;51.33;101899.00;5011137;28;4066;-72
2023/05/07 09:45:34;;;;;;;;;;;;;;;20.06;51.44;101901.22;4990623;28;4068;-69
2023/05/07 09:48:02;;;;;;;;;;;;;;;20.06;51.30;101901.97;5000241;28;4092;-71
2023/05/07 09:50:29;;;;;;;;;;;;;;;20.04;51.37;101893.22;4994304;28;4435;-71
2023/05/07 09:52:55;;;;;;;;;;;;;;;20.07;51.14;101908.50;5017052;28;4208;-71
2023/05/07 09:55:23;;;;;;;;;;;;;;;20.08;51.37;101910.72;5011017;28;4168;-65
2023/05/07 09:57:50;;;;;;;;;;;;;;;20.12;51.17;101898.00;5017203;28;3960;-69
2023/05/07 10:00:17;;;;;;;;;;;;;;;20.10;51.22;101895.72;5013989;28;4028;-68
2023/05/07 10:02:49;;;;;;;;;;;;;;;20.08;51.28;101904.97;5007801;28;5197;-68
2023/05/07 10:05:18;;;;;;;;;;;;;;;20.09;51.07;101903.63;5014468;28;3956;-68
2023/05/07 10:07:44;;;;;;;;;;;;;;;20.10;51.16;101895.72;5009693;28;4110;-68
2023/05/07 10:10:11;;;;;;;;;;;;;;;20.08;51.21;101913.59;5010569;28;4044;-69
2023/05/07 10:12:41;;;;;;;;;;;;;;;20.08;51.24;101904.97;5016269;28;4146;-69
2023/05/07 10:15:16;;;;;;;;;;;;;;;20.09;51.07;101912.25;5027392;28;4073;-68
2023/05/07 10:17:47;;;;;;;;;;;;;;;20.09;51.10;101911.50;5000151;28;4469;-68
2023/05/07 10:20:14;;;;;;;;;;;;;;;20.09;51.22;101905.75;5015505;28;3897;-69
2023/05/07 10:22:44;;;;;;;;;;;;;;;20.09;51.15;101906.50;5025186;28;4352;-67
2023/05/07 10:25:20;;;;;;;;;;;;;;;20.05;51.08;101914.84;5028466;28;4155;-68
2023/05/07 10:27:48;;;;;;;;;;;;;;;20.12;50.84;101915.25;5027596;28;4041;-69
2023/05/07 10:30:33;;;;;;;;;;;;;;;20.33;50.78;101912.28;4986920;28;4331;-73
2023/05/07 10:33:05;;;;;;;;;;;;;;;20.53;50.21;101912.06;5006729;28;4118;-73
2023/05/07 10:35:40;;;;;;;;;;;;;;;20.49;50.03;101919.06;5003892;28;4175;-72
2023/05/07 10:38:07;;;;;;;;;;;;;;;20.31;50.21;101917.91;5009795;28;4169;-71
2023/05/07 10:40:36;;;;;;;;;;;;;;;20.23;50.19;101915.28;5011618;28;4239;-71
2023/05/07 10:43:04;;;;;;;;;;;;;;;20.24;50.17;101918.91;4993883;28;3985;-71
2023/05/07 10:45:42;;;;;;;;;;;;;;;20.23;50.54;101908.78;5009365;28;4360;-71
2023/05/07 10:48:13;;;;;;;;;;;;;;;20.21;50.91;101914.41;5007302;28;3956;-70
2023/05/07 10:51:18;;;;;;;;;;;;;;;20.23;50.83;101908.78;4995048;28;4368;-70
2023/05/07 10:53:45;;;;;;;;;;;;;;;20.24;50.40;101916.75;5019769;28;3991;-70
2023/05/07 10:56:16;;;;;;;;;;;;;;;20.26;50.50;101916.16;5009527;28;4229;-71
2023/05/07 10:58:48;;;;;;;;;;;;;;;20.30;50.95;101925.78;5014294;28;4067;-71
2023/05/07 11:01:40;;;;;;;;;;;;;;;20.48;51.00;101917.56;5009697;28;4014;-69
2023/05/07 11:04:17;;;;;;;;;;;;;;;20.62;50.95;101914.09;5025072;28;4040;-70
2023/05/07 11:07:11;;;;;;;;;;;;;;;20.79;50.36;101901.47;5016662;28;4085;-71
2023/05/07 11:10:01;;;;;;;;;;;;;;;20.79;50.30;101916.59;5019231;28;4079;-71
2023/05/07 11:12:40;;;;;;;;;;;;;;;20.83;50.33;101904.59;5011233;28;4939;-71
2023/05/07 11:15:13;;;;;;;;;;;;;;;20.80;50.10;101912.34;5012366;28;4177;-70
2023/05/07 11:17:55;;;;;;;;;;;;;;;20.77;50.25;101913.59;4992612;28;4161;-70
2023/05/07 11:20:43;;;;;;;;;;;;;;;20.84;50.29;101912.56;5019313;28;4193;-71
2023/05/07 11:23:37;;;;;;;;;;;;;;;20.81;50.30;101910.97;5024962;28;4160;-71
2023/05/07 11:26:17;;;;;;;;;;;;;;;20.75;49.75;101904.81;5007433;28;4135;-72
2023/05/07 11:28:44;;;;;;;;;;;;;;;20.62;50.39;101902.59;5001957;28;4153;-72
2023/05/07 11:31:11;;;;;;;;;;;;;;;20.59;50.42;101904.59;5009850;28;4078;-72
2023/05/07 11:33:38;;;;;;;;;;;;;;;20.50;49.69;101908.28;5009187;28;4020;-74
2023/05/07 11:36:08;;;;;;;;;;;;;;;20.58;50.05;101902.34;4997709;28;4383;-71
2023/05/07 11:38:41;;;;;;;;;;;;;;;20.56;50.32;101905.06;5006268;28;4140;-70
2023/05/07 11:41:07;;;;;;;;;;;;;;;20.59;50.37;101903.81;5012963;28;4201;-70
2023/05/07 11:43:35;;;;;;;;;;;;;;;20.60;50.59;101896.72;4997669;28;4158;-70
2023/05/07 11:46:05;;;;;;;;;;;;;;;20.63;50.39;101901.22;5004231;28;3976;-71
2023/05/07 11:48:32;;;;;;;;;;;;;;;20.62;50.60;101897.59;5000709;28;4273;-70
2023/05/07 11:50:58;;;;;;;;;;;;;;;20.61;50.39;101892.44;5002897;28;4207;-71
2023/05/07 11:53:24;;;;;;;;;;;;;;;20.63;50.52;101895.44;5011013;28;4205;-71
2023/05/07 11:55:57;;;;;;;;;;;;;;;20.64;50.66;101897.72;5007144;28;4219;-71
2023/05/07 11:58:24;;;;;;;;;;;;;;;20.65;50.35;101884.81;5008466;28;4081;-71
2023/05/07 12:00:50;;;;;;;;;;;;;;;20.64;50.35;101888.34;5013775;28;4148;-70
2023/05/07 12:03:17;;;;;;;;;;;;;;;20.65;50.45;101889.81;5013000;28;4190;-71
2023/05/07 12:05:44;;;;;;;;;;;;;;;20.66;50.61;101891.31;5008503;28;4110;-71
2023/05/07 12:08:13;;;;;;;;;;;;;;;20.66;50.39;101897.84;5018431;28;4325;-71
2023/05/07 12:10:40;;;;;;;;;;;;;;;20.67;50.48;101898.59;5011260;28;4327;-71
2023/05/07 12:13:20;;;;;;;;;;;;;;;20.67;50.35;101893.56;5009817;28;4221;-71
2023/05/07 12:15:46;;;;;;;;;;;;;;;20.67;50.27;101893.56;5010783;28;4177;-71
2023/05/07 12:18:13;;;;;;;;;;;;;;;20.67;50.32;101898.59;5010369;28;4487;-71
2023/05/07 12:20:39;;;;;;;;;;;;;;;20.68;50.27;101897.19;5005398;28;4163;-74
2023/05/07 12:23:05;;;;;;;;;;;;;;;20.68;50.18;101900.84;5004286;28;4389;-76
2023/05/07 12:25:34;;;;;;;;;;;;;;;20.68;50.14;101885.69;4998168;28;4392;-76
2023/05/07 12:28:00;;;;;;;;;;;;;;;20.94;50.26;101886.56;5007098;28;4028;-80
2023/05/07 12:30:27;;;;;;;;;;;;;;;21.16;49.58;101892.88;5006977;28;4140;-76
2023/05/07 12:32:53;;;;;;;;;;;;;;;21.28;49.06;101895.72;5004810;28;4227;-75
2023/05/07 12:35:46;;;;;;;;;;;;;;;21.38;48.96;101899.22;5003078;28;4467;-75
2023/05/07 12:38:13;;;;;;;;;;;;;;;21.45;48.92;101894.59;5000572;28;4053;-76
2023/05/07 12:40:43;;;;;;;;;;;;;;;21.46;48.96;101893.19;5006005;28;4284;-77
2023/05/07 12:43:17;;;;;;;;;;;;;;;21.47;48.83;101903.38;5005931;28;4064;-76
2023/05/07 12:45:43;;;;;;;;;;;;;;;21.50;48.57;101893.44;4993151;28;4198;-75
2023/05/07 12:48:10;;;;;;;;;;;;;;;21.50;48.75;101899.22;5007431;28;4163;-79
2023/05/07 12:50:36;;;;;;;;;;;;;;;21.48;48.80;101890.44;5005765;28;4307;-78
2023/05/07 12:53:06;;;;;;;;;;;;;;;21.36;48.61;101889.72;5007505;28;4170;-82
2023/05/07 12:55:32;;;;;;;;;;;;;;;21.05;48.39;101885.00;5010212;28;4544;-71
2023/05/07 12:58:00;;;;;;;;;;;;;;;21.10;49.00;101889.66;4998360;28;4204;-70